East Harling, United Kingdom
Current Conditions -  °F | °C
As of 1:58 PM on Tuesday 27 Jan 2015 (Local Time) from EGUL Reporting Station
Overcast Overcast  
Wind Chill: 42°   Ceiling: 2100
Heat Index: 46°   Visibility: 6mi
Dew Point: 46°   Wind: 9mph
Humidity: 100%   Direction: 270°W
Pressure: 30.24"   Gusts: NA
Location:  52.44°N, 0.93°E
Report Text: EGUL 271358Z AUTO 27008KT 9999 OVC021 08/08 A3024 RMK AO2 DZB1320E1341 SLP244 P0000 T00790079
Loading
Personal Weather Stations






























Interactive Weather Map New forecast layout! Learn more

10-Day Weather Forecast

Advertisements
Track Severe Weather on mobile